Estación Meteorológica Peña el Pijo (Robertgarden) [ 09/24/17 17:42:33 CEST ]

Fecha Hora Presion(HPa) Temp (°C) Humedad % Rocio (°C) Viento ( m/s) Direccion Lluvia 1Hora(mm) Lluvia 24H(mm) LLuvia Total(mm)
2017-Aug-08 01:01:39 1011.100 22.4 39 7.7         1437.96
2017-Aug-08 02:01:48 1010.700 22.4 39 7.7         1437.96
2017-Aug-08 03:01:14 1010.200 22.1 40 7.9         1437.96
2017-Aug-08 04:01:17 1009.600 21.3 43 8.2         1437.96
2017-Aug-08 05:01:13 1009.300 21.6 41 7.8         1437.96
2017-Aug-08 06:01:15 1008.700 20.9 41 7.1         1437.96
2017-Aug-08 07:01:46 1008.500 20.2 43 7.2         1437.96
2017-Aug-08 08:01:51 1008.800 19.9 45 7.6         1437.96
2017-Aug-08 09:01:50 1008.900 23.3 49 12.0         1437.96
2017-Aug-08 10:01:50 1009.300 27.8 27 6.9         1437.96
2017-Aug-08 11:01:44 1009.600 29.6 21 4.9 0.3 W     1437.96
2017-Aug-08 12:01:47 1010.000 30.5 21 5.6         1437.96
2017-Aug-08 13:01:42 1010.200 32.1 16 2.5         1437.96
2017-Aug-08 14:01:43 1009.800 32.7 15 2.0         1437.96
2017-Aug-08 15:02:04 1009.800 33.8 14 1.9         1437.96
2017-Aug-08 16:01:49 1009.800 34.5 13 1.4         1437.96
2017-Aug-08 17:01:53 1009.700 33.8 13 0.9         1437.96
2017-Aug-08 18:01:41 1009.700 33.2 11 -1.5         1437.96
2017-Aug-08 19:01:41 1009.700 31.9 10 -3.5         1437.96
2017-Aug-08 20:01:43 1010.000 30.1 11 -3.9         1437.96
2017-Aug-08 21:01:37 1010.400 24.9 18 -1.4         1437.96
2017-Aug-08 22:01:57 1010.900 19.4 26 -0.8         1437.96
2017-Aug-08 23:01:54 1011.300 18.4 27 -1.1         1437.96

Temperatura Máxima:34°    Temperatura Mínima:18°
Presión Máxima:1011.300 Hpa    Presión Mínima:1008.500 Hpa


Volver